Time;durP1;ratioP1;P1;durP2;ratioP2;P2;SDS_P1;SDS_P2;PMS_P1;PMS_P2;Temp;Humidity;BMP_temperature;BMP_pressure;BME280_temperature;BME280_humidity;BME280_pressure;Samples;Min_cycle;Max_cycle;Signal;HPM_P1;HPM_P2
2023/04/10 00:00:56;;;;;;;12.05;8.13;;;12.30;99.90;;;;;;5088056;28;20087;-59
2023/04/10 00:03:23;;;;;;;11.43;8.73;;;12.20;99.90;;;;;;5086872;28;20083;-63
2023/04/10 00:05:53;;;;;;;15.95;9.50;;;12.30;99.90;;;;;;5084271;28;20640;-60
2023/04/10 00:08:21;;;;;;;13.65;8.10;;;12.20;99.90;;;;;;5087949;28;20047;-60
2023/04/10 00:10:48;;;;;;;12.02;7.97;;;12.30;99.90;;;;;;5087134;28;20380;-60
2023/04/10 00:13:15;;;;;;;16.13;8.55;;;12.30;99.90;;;;;;5087823;28;20054;-60
2023/04/10 00:15:42;;;;;;;13.65;8.75;;;12.30;99.90;;;;;;5087479;28;20067;-61
2023/04/10 00:18:09;;;;;;;15.68;8.68;;;12.20;99.90;;;;;;5087610;28;20083;-60
2023/04/10 00:20:35;;;;;;;14.20;8.30;;;12.20;99.90;;;;;;5087578;28;20048;-60
2023/04/10 00:23:02;;;;;;;12.35;8.40;;;12.30;99.90;;;;;;5088200;28;20139;-60
2023/04/10 00:25:29;;;;;;;13.38;8.05;;;12.30;99.90;;;;;;5091501;28;20040;-60
2023/04/10 00:27:56;;;;;;;19.08;9.35;;;12.30;99.90;;;;;;5091656;28;20048;-60
2023/04/10 00:30:22;;;;;;;14.43;8.75;;;12.30;99.90;;;;;;5091353;28;20047;-61
2023/04/10 00:32:49;;;;;;;13.77;8.35;;;12.30;99.90;;;;;;5086268;28;20050;-60
2023/04/10 00:35:16;;;;;;;14.05;8.18;;;12.30;99.90;;;;;;5091179;28;20051;-60
2023/04/10 00:37:43;;;;;;;12.98;7.97;;;12.30;99.90;;;;;;5091222;28;20056;-60
2023/04/10 00:40:10;;;;;;;12.98;7.93;;;12.30;99.90;;;;;;5091115;28;20048;-60
2023/04/10 00:42:36;;;;;;;16.25;8.85;;;12.30;99.90;;;;;;5090352;28;20050;-60
2023/04/10 00:45:03;;;;;;;12.65;7.90;;;12.30;99.90;;;;;;5091297;28;20044;-60
2023/04/10 00:47:30;;;;;;;14.73;8.48;;;12.40;99.90;;;;;;5091097;28;20044;-60
2023/04/10 00:49:58;;;;;;;15.50;8.27;;;12.40;99.90;;;;;;5089744;28;20051;-60
2023/04/10 00:52:25;;;;;;;12.38;8.77;;;12.40;99.90;;;;;;5085998;28;20044;-60
2023/04/10 00:54:51;;;;;;;13.13;7.95;;;12.50;99.90;;;;;;5089769;28;20123;-59
2023/04/10 00:57:18;;;;;;;14.20;8.15;;;12.50;99.90;;;;;;5090653;28;20052;-60
2023/04/10 00:59:45;;;;;;;14.35;8.73;;;12.50;99.90;;;;;;5091099;28;20043;-60
2023/04/10 01:02:12;;;;;;;16.00;8.90;;;12.50;99.90;;;;;;5090701;28;20059;-60
2023/04/10 01:04:39;;;;;;;17.70;8.60;;;12.50;99.90;;;;;;5090776;28;20047;-60
2023/04/10 01:07:18;;;;;;;14.00;7.93;;;12.50;99.90;;;;;;5089457;28;20110;-60
2023/04/10 01:09:52;;;;;;;11.38;7.97;;;12.50;99.90;;;;;;5089681;28;20525;-60
2023/04/10 01:12:50;;;;;;;13.23;8.25;;;12.60;99.90;;;;;;4739012;27;9999888;-60
2023/04/10 01:15:19;;;;;;;18.50;7.47;;;12.60;99.90;;;;;;5090610;28;20071;-60
2023/04/10 01:18:07;;;;;;;16.83;8.18;;;12.60;99.90;;;;;;5072074;28;20044;-60
2023/04/10 01:20:34;;;;;;;12.05;7.88;;;12.60;99.90;;;;;;5089601;28;20060;-60
2023/04/10 01:23:13;;;;;;;20.95;7.35;;;12.60;99.90;;;;;;5088571;28;20730;-60
2023/04/10 01:25:48;;;;;;;15.93;7.78;;;12.60;99.90;;;;;;5090574;28;20071;-60
2023/04/10 01:28:18;;;;;;;11.85;7.72;;;12.60;99.90;;;;;;5072737;28;20136;-60
2023/04/10 01:30:49;;;;;;;10.63;7.75;;;12.60;99.90;;;;;;5090495;28;20050;-60
2023/04/10 01:33:17;;;;;;;14.52;7.82;;;12.60;99.90;;;;;;5089074;28;20048;-60
2023/04/10 01:35:48;;;;;;;15.10;8.63;;;12.60;99.90;;;;;;5089026;28;20131;-60
2023/04/10 01:38:16;;;;;;;13.00;7.53;;;12.60;99.90;;;;;;5088600;28;20044;-59
2023/04/10 01:40:48;;;;;;;13.30;7.32;;;12.60;99.90;;;;;;5072189;28;20058;-60
2023/04/10 01:43:15;;;;;;;14.20;7.80;;;12.60;99.90;;;;;;5087975;28;20044;-60
2023/04/10 01:45:42;;;;;;;14.40;8.65;;;12.60;99.90;;;;;;5089022;28;20731;-60
2023/04/10 01:48:09;;;;;;;13.88;8.90;;;12.60;99.90;;;;;;5088544;28;20062;-60
2023/04/10 01:50:36;;;;;;;12.05;7.93;;;12.60;99.90;;;;;;5088679;28;20122;-60
2023/04/10 01:53:04;;;;;;;12.40;7.38;;;12.60;99.90;;;;;;5071577;28;20048;-60
2023/04/10 01:55:31;;;;;;;14.25;8.15;;;12.60;99.90;;;;;;5094281;28;20047;-60
2023/04/10 01:57:58;;;;;;;12.65;7.97;;;12.50;99.90;;;;;;5089557;28;20056;-60
2023/04/10 02:00:26;;;;;;;15.65;8.32;;;12.50;99.90;;;;;;5088610;28;20083;-60
2023/04/10 02:02:52;;;;;;;13.75;8.43;;;12.60;99.90;;;;;;5089378;28;20040;-60
2023/04/10 02:05:21;;;;;;;14.23;8.73;;;12.60;99.90;;;;;;5089580;28;20047;-60
2023/04/10 02:07:56;;;;;;;16.95;7.85;;;12.50;99.90;;;;;;5089761;28;20545;-60
2023/04/10 02:11:02;;;;;;;13.18;7.50;;;12.50;99.90;;;;;;5088185;28;20036;-61
2023/04/10 02:13:29;;;;;;;15.63;7.97;;;12.50;99.90;;;;;;5006389;28;20077;-60
2023/04/10 02:15:56;;;;;;;15.93;8.93;;;12.50;99.90;;;;;;5006703;28;20509;-60
2023/04/10 02:18:22;;;;;;;12.45;7.80;;;12.50;99.90;;;;;;5053303;28;20094;-60
2023/04/10 02:20:49;;;;;;;14.73;8.57;;;12.50;99.90;;;;;;5087948;28;20048;-60
2023/04/10 02:23:16;;;;;;;13.32;7.70;;;12.50;99.90;;;;;;5089170;28;20044;-60
2023/04/10 02:25:43;;;;;;;10.40;7.35;;;12.50;99.90;;;;;;5087911;28;20131;-60
2023/04/10 02:28:10;;;;;;;14.20;7.65;;;12.50;99.90;;;;;;5071143;28;20048;-61
2023/04/10 02:30:38;;;;;;;15.15;7.63;;;12.40;99.90;;;;;;5089008;28;20047;-59
2023/04/10 02:33:04;;;;;;;15.07;8.57;;;12.40;99.90;;;;;;5088211;28;20048;-60
2023/04/10 02:35:32;;;;;;;15.38;9.73;;;12.30;99.90;;;;;;5088755;28;20089;-59
2023/04/10 02:37:59;;;;;;;14.18;8.75;;;12.20;99.90;;;;;;5088160;28;20052;-61
2023/04/10 02:40:27;;;;;;;13.20;7.10;;;12.10;99.90;;;;;;5088878;28;20048;-60
2023/04/10 02:42:53;;;;;;;14.57;7.97;;;12.00;99.90;;;;;;5088167;28;20079;-59
2023/04/10 02:45:20;;;;;;;11.32;7.40;;;11.90;99.90;;;;;;5088469;28;20044;-59
2023/04/10 02:47:47;;;;;;;14.43;8.02;;;11.90;99.90;;;;;;5088591;28;20047;-59
2023/04/10 02:50:16;;;;;;;20.65;8.13;;;11.80;99.90;;;;;;5088555;28;20498;-59
2023/04/10 02:52:43;;;;;;;14.13;7.07;;;11.80;99.90;;;;;;5088405;28;20556;-59
2023/04/10 02:55:10;;;;;;;18.70;8.10;;;11.80;99.90;;;;;;5088724;28;20044;-59
2023/04/10 02:57:36;;;;;;;11.95;7.43;;;11.80;99.90;;;;;;5090837;28;20058;-60
2023/04/10 03:00:04;;;;;;;14.70;8.10;;;11.80;99.90;;;;;;5088522;28;20051;-60
2023/04/10 03:02:31;;;;;;;15.40;7.85;;;11.80;99.90;;;;;;5088834;28;20052;-60
2023/04/10 03:05:00;;;;;;;15.70;7.75;;;11.70;99.90;;;;;;5088403;28;20516;-59
2023/04/10 03:07:27;;;;;;;10.93;6.93;;;11.70;99.90;;;;;;5087366;28;20044;-60
2023/04/10 03:09:54;;;;;;;11.90;6.88;;;11.60;99.90;;;;;;5088500;28;20040;-60
2023/04/10 03:12:20;;;;;;;11.40;6.60;;;11.60;99.90;;;;;;5088439;28;20540;-60
2023/04/10 03:14:47;;;;;;;11.05;7.00;;;11.60;99.90;;;;;;5088229;28;20087;-60
2023/04/10 03:17:14;;;;;;;14.18;6.70;;;11.60;99.90;;;;;;5088249;28;20054;-59
2023/04/10 03:19:41;;;;;;;14.73;6.18;;;11.70;99.90;;;;;;5088419;28;20147;-59
2023/04/10 03:22:08;;;;;;;14.95;6.68;;;11.70;99.90;;;;;;5087972;28;20040;-59
2023/04/10 03:24:37;;;;;;;11.02;5.30;;;11.60;99.90;;;;;;5088157;28;20119;-59
2023/04/10 03:27:03;;;;;;;11.52;5.68;;;11.60;99.90;;;;;;5087973;28;20044;-59
2023/04/10 03:29:30;;;;;;;8.13;4.82;;;11.70;99.90;;;;;;5088464;28;20048;-59
2023/04/10 03:31:57;;;;;;;10.95;5.53;;;11.70;99.90;;;;;;5087215;28;20040;-60
2023/04/10 03:34:24;;;;;;;12.00;5.28;;;11.70;99.90;;;;;;5087904;28;20044;-59
2023/04/10 03:36:51;;;;;;;11.38;5.05;;;11.80;99.90;;;;;;5088117;28;20058;-60
2023/04/10 03:39:17;;;;;;;12.02;4.40;;;11.80;99.90;;;;;;5088029;28;20044;-59
2023/04/10 03:41:44;;;;;;;9.30;4.28;;;11.80;99.90;;;;;;5088113;28;20050;-59
2023/04/10 03:44:11;;;;;;;12.88;4.60;;;11.70;99.90;;;;;;5083820;28;20131;-59
2023/04/10 03:46:38;;;;;;;12.90;5.22;;;11.80;99.90;;;;;;5087977;28;20134;-59
2023/04/10 03:49:05;;;;;;;12.43;5.35;;;11.80;99.90;;;;;;5087854;28;20488;-60
2023/04/10 03:51:31;;;;;;;9.70;4.25;;;11.80;99.90;;;;;;5087760;28;20105;-59
2023/04/10 03:53:58;;;;;;;12.43;4.47;;;11.70;99.90;;;;;;5086340;28;20048;-60
2023/04/10 03:56:25;;;;;;;9.77;4.00;;;11.70;99.90;;;;;;5088190;28;20067;-59
2023/04/10 03:58:52;;;;;;;13.85;4.38;;;11.60;99.90;;;;;;5089984;28;20504;-60
2023/04/10 04:01:18;;;;;;;7.68;3.58;;;11.60;99.90;;;;;;5091918;28;20062;-60
2023/04/10 04:03:45;;;;;;;14.13;3.80;;;11.60;99.90;;;;;;5080635;28;20126;-59
2023/04/10 04:06:12;;;;;;;6.07;3.40;;;11.50;99.90;;;;;;5082282;28;20044;-60
2023/04/10 04:08:39;;;;;;;8.38;3.38;;;11.50;99.90;;;;;;5092059;28;20044;-60
2023/04/10 04:11:06;;;;;;;12.63;3.63;;;11.50;99.90;;;;;;5092203;28;20047;-62
2023/04/10 04:13:32;;;;;;;12.00;4.28;;;11.40;99.90;;;;;;5091947;28;20048;-60
2023/04/10 04:15:59;;;;;;;7.90;3.80;;;11.40;99.90;;;;;;5091733;28;20131;-59
2023/04/10 04:18:26;;;;;;;8.85;3.72;;;11.40;99.90;;;;;;5091554;28;20047;-60
2023/04/10 04:20:53;;;;;;;9.05;4.18;;;11.30;99.90;;;;;;5091579;28;20673;-60
2023/04/10 04:23:20;;;;;;;6.85;3.33;;;11.20;99.90;;;;;;5090899;28;20055;-60
2023/04/10 04:25:46;;;;;;;10.20;3.20;;;11.20;99.90;;;;;;5091728;28;20046;-60
2023/04/10 04:28:14;;;;;;;8.73;2.92;;;11.10;99.90;;;;;;5091924;28;20044;-60
2023/04/10 04:30:41;;;;;;;8.45;3.80;;;11.10;99.90;;;;;;5091608;28;20040;-60
2023/04/10 04:33:08;;;;;;;8.73;3.22;;;11.00;99.90;;;;;;5090307;28;20048;-60
2023/04/10 04:35:35;;;;;;;7.13;3.22;;;11.00;99.90;;;;;;5091552;28;20086;-60
2023/04/10 04:38:01;;;;;;;10.18;3.40;;;11.00;99.90;;;;;;5091586;28;20055;-60
2023/04/10 04:40:28;;;;;;;6.53;3.00;;;11.00;99.90;;;;;;5089000;28;20040;-58
2023/04/10 04:42:55;;;;;;;3.75;2.67;;;11.00;99.90;;;;;;5090602;28;20062;-60
2023/04/10 04:45:22;;;;;;;4.65;3.00;;;10.90;99.90;;;;;;5094589;28;20119;-60
2023/04/10 04:47:48;;;;;;;7.65;3.00;;;10.90;99.90;;;;;;5091344;28;20044;-60
2023/04/10 04:50:15;;;;;;;7.35;3.72;;;10.90;99.90;;;;;;5091281;28;20059;-60
2023/04/10 04:52:43;;;;;;;7.50;2.95;;;10.80;99.90;;;;;;5091267;28;20135;-58
2023/04/10 04:55:09;;;;;;;8.35;3.15;;;10.80;99.90;;;;;;5090711;28;20076;-59
2023/04/10 04:57:36;;;;;;;6.10;2.95;;;10.80;99.90;;;;;;5091393;28;20067;-59
2023/04/10 05:00:04;;;;;;;3.80;2.50;;;10.70;99.90;;;;;;5089658;28;20063;-60
2023/04/10 05:02:30;;;;;;;7.95;3.28;;;10.70;99.90;;;;;;5087315;28;20054;-60
2023/04/10 05:04:57;;;;;;;10.05;3.97;;;10.70;99.90;;;;;;5090485;28;20540;-59
2023/04/10 05:07:24;;;;;;;8.77;3.50;;;10.70;99.90;;;;;;5090787;28;20050;-60
2023/04/10 05:09:51;;;;;;;6.38;2.92;;;10.60;99.90;;;;;;5090226;28;20102;-60
2023/04/10 05:12:18;;;;;;;7.93;3.58;;;10.60;99.90;;;;;;5090653;28;20051;-60
2023/04/10 05:14:45;;;;;;;6.25;2.75;;;10.60;99.90;;;;;;5089358;28;20056;-60
2023/04/10 05:17:13;;;;;;;5.43;2.83;;;10.60;99.90;;;;;;5090476;28;20131;-60
2023/04/10 05:19:40;;;;;;;7.88;2.85;;;10.60;99.90;;;;;;5090418;28;20556;-60
2023/04/10 05:22:07;;;;;;;5.50;3.17;;;10.60;99.90;;;;;;5090585;28;20044;-60
2023/04/10 05:24:34;;;;;;;4.30;2.53;;;10.60;99.90;;;;;;5090143;28;20127;-60
2023/04/10 05:27:00;;;;;;;4.25;2.17;;;10.70;99.90;;;;;;5090455;28;20505;-60
2023/04/10 05:29:27;;;;;;;5.55;2.42;;;10.60;99.90;;;;;;5090453;28;20139;-61
2023/04/10 05:31:54;;;;;;;4.38;2.05;;;10.60;99.90;;;;;;5089423;28;20052;-60
2023/04/10 05:34:21;;;;;;;3.60;2.85;;;10.70;99.90;;;;;;5090148;28;20121;-60
2023/04/10 05:36:47;;;;;;;3.97;1.92;;;10.70;99.90;;;;;;5090124;28;20063;-60
2023/04/10 05:39:15;;;;;;;9.32;4.47;;;10.70;99.90;;;;;;5089386;28;20067;-60
2023/04/10 05:41:42;;;;;;;3.30;1.77;;;10.70;99.90;;;;;;5089227;28;20083;-61
2023/04/10 05:44:09;;;;;;;3.92;2.00;;;10.70;99.90;;;;;;5090947;28;20058;-59
2023/04/10 05:46:35;;;;;;;2.40;1.70;;;10.70;99.90;;;;;;5093205;28;20119;-60
2023/04/10 05:49:02;;;;;;;2.40;1.60;;;10.70;99.90;;;;;;5088959;28;20193;-61
2023/04/10 05:51:29;;;;;;;3.83;1.60;;;10.70;99.90;;;;;;5088754;28;20050;-61
2023/04/10 05:53:56;;;;;;;2.88;1.70;;;10.70;99.90;;;;;;5089627;28;20091;-60
2023/04/10 05:56:23;;;;;;;4.70;2.63;;;10.80;99.90;;;;;;5090026;28;20044;-60
2023/04/10 05:58:50;;;;;;;2.92;1.98;;;10.80;99.90;;;;;;5089802;28;20082;-60
2023/04/10 06:01:16;;;;;;;3.78;1.90;;;10.80;99.90;;;;;;5094990;28;20097;-60
2023/04/10 06:03:43;;;;;;;2.90;2.20;;;10.80;99.90;;;;;;5089593;28;20131;-60
2023/04/10 06:06:10;;;;;;;4.00;2.35;;;10.90;99.90;;;;;;4736264;28;10000663;-60
2023/04/10 06:08:37;;;;;;;4.82;2.40;;;10.80;99.90;;;;;;5085768;28;20040;-60
2023/04/10 06:11:05;;;;;;;3.90;2.22;;;10.90;99.90;;;;;;5087202;28;20048;-61
2023/04/10 06:13:32;;;;;;;4.25;2.20;;;10.90;99.90;;;;;;5076868;28;20440;-60
2023/04/10 06:15:59;;;;;;;5.07;2.40;;;10.90;99.90;;;;;;5087192;28;20052;-60
2023/04/10 06:18:26;;;;;;;3.67;2.40;;;10.90;99.90;;;;;;5086850;28;20138;-60
2023/04/10 06:20:55;;;;;;;3.28;2.22;;;10.90;99.90;;;;;;5086147;28;20139;-63
2023/04/10 06:23:22;;;;;;;6.50;2.28;;;10.90;99.90;;;;;;5085848;28;20486;-60
2023/04/10 06:25:49;;;;;;;6.18;2.70;;;10.90;99.90;;;;;;5086509;28;20507;-60
2023/04/10 06:28:15;;;;;;;5.82;2.63;;;10.90;99.90;;;;;;5068808;28;20148;-60
2023/04/10 06:30:42;;;;;;;4.22;3.08;;;11.00;99.90;;;;;;5085539;28;20127;-60
2023/04/10 06:33:09;;;;;;;3.47;2.78;;;11.00;99.90;;;;;;5083830;28;20052;-60
2023/04/10 06:35:36;;;;;;;4.15;2.40;;;11.00;99.90;;;;;;5096688;28;20072;-60
2023/04/10 06:38:03;;;;;;;4.57;3.03;;;11.00;99.90;;;;;;5086794;28;20047;-60
2023/04/10 06:40:30;;;;;;;4.57;3.47;;;11.00;99.90;;;;;;5085278;28;20047;-60
2023/04/10 06:42:57;;;;;;;4.93;2.67;;;11.00;99.90;;;;;;5084000;28;20539;-60
2023/04/10 06:45:24;;;;;;;4.45;2.92;;;11.00;99.90;;;;;;5086464;28;20086;-61
2023/04/10 06:47:50;;;;;;;4.57;2.47;;;11.00;99.90;;;;;;5086127;28;20082;-60
2023/04/10 06:50:17;;;;;;;3.92;3.30;;;11.00;99.90;;;;;;5086525;28;20147;-61
2023/04/10 06:52:44;;;;;;;4.57;2.38;;;11.00;99.90;;;;;;5085405;28;20052;-61
2023/04/10 06:55:14;;;;;;;5.43;2.67;;;11.00;99.90;;;;;;5085935;28;20390;-61
2023/04/10 06:57:40;;;;;;;4.65;2.80;;;11.00;99.90;;;;;;5093499;28;20066;-61
2023/04/10 07:00:08;;;;;;;3.65;2.63;;;11.00;99.90;;;;;;5084882;28;20507;-61
2023/04/10 07:02:35;;;;;;;4.53;2.40;;;11.00;99.90;;;;;;5085795;28;20044;-60
2023/04/10 07:05:01;;;;;;;3.40;2.15;;;11.00;99.90;;;;;;5084653;28;20056;-61
2023/04/10 07:07:28;;;;;;;3.78;2.40;;;11.00;99.90;;;;;;5084396;28;20119;-60
2023/04/10 07:09:56;;;;;;;3.38;2.50;;;11.00;99.90;;;;;;5085548;28;20047;-61
2023/04/10 07:12:23;;;;;;;3.38;2.95;;;11.00;99.90;;;;;;5089105;28;20044;-61
2023/04/10 07:14:50;;;;;;;3.45;2.30;;;11.00;99.90;;;;;;5087062;28;20131;-60
2023/04/10 07:17:16;;;;;;;3.72;2.58;;;11.00;99.90;;;;;;5086052;28;20040;-61
2023/04/10 07:19:43;;;;;;;5.75;2.30;;;11.00;99.90;;;;;;5084165;28;20052;-62
2023/04/10 07:22:10;;;;;;;4.07;2.15;;;10.90;99.90;;;;;;5082144;28;20109;-60
2023/04/10 07:24:37;;;;;;;5.47;2.38;;;10.90;99.90;;;;;;5085220;28;20056;-60
2023/04/10 07:27:03;;;;;;;3.25;1.98;;;11.00;99.90;;;;;;5085483;28;20132;-60
2023/04/10 07:29:30;;;;;;;3.25;2.33;;;10.90;99.90;;;;;;5085448;28;20044;-61
2023/04/10 07:31:57;;;;;;;4.13;2.10;;;10.90;99.90;;;;;;5084975;28;20051;-61
2023/04/10 07:34:24;;;;;;;3.15;2.28;;;10.90;99.90;;;;;;5084948;28;20069;-60
2023/04/10 07:36:51;;;;;;;3.22;1.98;;;10.80;99.90;;;;;;5087884;28;20044;-60
2023/04/10 07:39:21;;;;;;;8.15;2.50;;;10.90;99.90;;;;;;5086367;28;20854;-60
2023/04/10 07:41:47;;;;;;;5.03;2.25;;;10.80;99.90;;;;;;5084649;28;20050;-62
2023/04/10 07:44:14;;;;;;;4.55;2.28;;;10.80;99.90;;;;;;5084959;28;20044;-59
2023/04/10 07:46:41;;;;;;;6.63;2.70;;;10.90;99.90;;;;;;5084428;28;20036;-60
2023/04/10 07:49:08;;;;;;;8.30;2.85;;;10.90;99.90;;;;;;5078658;28;20060;-60
2023/04/10 07:51:34;;;;;;;4.60;2.08;;;10.90;99.90;;;;;;5085184;28;20046;-60
2023/04/10 07:54:04;;;;;;;5.75;3.58;;;10.90;99.90;;;;;;5090665;28;20052;-60
2023/04/10 07:56:31;;;;;;;3.70;2.13;;;10.90;99.90;;;;;;5080046;28;20054;-61
2023/04/10 07:58:59;;;;;;;4.15;2.75;;;10.90;99.90;;;;;;5085226;28;20052;-61
2023/04/10 08:01:26;;;;;;;5.25;2.30;;;10.90;99.90;;;;;;5084626;28;20671;-61
2023/04/10 08:03:54;;;;;;;5.20;2.55;;;10.90;99.90;;;;;;5083955;28;20059;-61
2023/04/10 08:06:22;;;;;;;3.15;1.80;;;10.90;99.90;;;;;;5082329;28;20075;-61
2023/04/10 08:08:49;;;;;;;4.32;2.35;;;10.90;99.90;;;;;;5083825;28;20056;-61
2023/04/10 08:11:26;;;;;;;3.47;1.67;;;10.90;99.90;;;;;;5083671;28;20578;-61
2023/04/10 08:13:57;;;;;;;4.72;1.85;;;10.90;99.90;;;;;;5081305;28;20052;-61
2023/04/10 08:16:31;;;;;;;4.43;1.83;;;10.90;99.90;;;;;;5085116;28;20036;-61
2023/04/10 08:18:58;;;;;;;;;;;11.00;99.90;;;;;;5084975;28;20149;-61
2023/04/10 08:21:28;;;;;;;3.78;1.70;;;11.10;99.90;;;;;;5084519;28;20147;-61
2023/04/10 08:23:56;;;;;;;3.70;1.80;;;11.00;99.90;;;;;;5084584;28;20048;-61
2023/04/10 08:26:23;;;;;;;3.95;2.60;;;11.10;99.90;;;;;;5083747;28;20086;-61
2023/04/10 08:28:50;;;;;;;4.10;1.65;;;11.00;99.90;;;;;;5083886;28;20083;-61
2023/04/10 08:31:18;;;;;;;2.35;1.35;;;11.10;99.90;;;;;;5084618;28;20044;-61
2023/04/10 08:33:45;;;;;;;1.67;1.40;;;11.10;99.90;;;;;;5084597;28;20055;-61
2023/04/10 08:36:11;;;;;;;5.35;1.95;;;11.10;99.90;;;;;;5083708;28;20051;-61
2023/04/10 08:38:38;;;;;;;8.00;1.55;;;11.10;99.90;;;;;;5083534;28;20060;-61
2023/04/10 08:41:05;;;;;;;4.95;2.00;;;11.10;99.90;;;;;;5084764;28;20055;-61
2023/04/10 08:43:33;;;;;;;5.20;2.53;;;11.10;99.90;;;;;;5085081;28;20048;-60
2023/04/10 08:46:00;;;;;;;2.20;1.50;;;11.10;99.90;;;;;;5093189;28;20048;-60
2023/04/10 08:48:31;;;;;;;4.38;1.73;;;11.20;99.90;;;;;;5088078;28;20151;-60
2023/04/10 08:50:59;;;;;;;4.53;1.40;;;11.20;99.90;;;;;;5087174;28;20048;-60
2023/04/10 08:53:26;;;;;;;2.85;1.23;;;11.20;99.90;;;;;;5086435;28;20043;-60
2023/04/10 08:55:53;;;;;;;2.00;1.42;;;11.30;99.90;;;;;;5087094;28;20063;-59
2023/04/10 08:58:20;;;;;;;5.50;1.80;;;11.30;99.90;;;;;;5086652;28;20434;-59
2023/04/10 09:00:47;;;;;;;4.00;1.30;;;11.20;99.90;;;;;;5087053;28;20040;-60
2023/04/10 09:03:14;;;;;;;4.15;1.08;;;11.20;99.90;;;;;;5086308;28;20099;-61
2023/04/10 09:05:41;;;;;;;2.97;1.02;;;11.20;99.90;;;;;;5088301;28;20050;-61
2023/04/10 09:08:09;;;;;;;1.27;0.90;;;11.20;99.90;;;;;;5088004;28;20040;-61
2023/04/10 09:10:36;;;;;;;3.28;0.90;;;11.20;99.90;;;;;;5086737;28;20483;-61
2023/04/10 09:13:03;;;;;;;8.48;1.05;;;11.30;99.90;;;;;;5087727;28;20052;-60
2023/04/10 09:15:29;;;;;;;2.08;0.82;;;11.30;99.90;;;;;;5088024;28;20091;-59
2023/04/10 09:18:00;;;;;;;4.28;1.05;;;11.40;99.90;;;;;;5087826;28;20214;-59
2023/04/10 09:20:29;;;;;;;0.43;0.43;;;11.30;99.90;;;;;;5084186;28;20047;-59
2023/04/10 09:22:55;;;;;;;1.02;0.50;;;11.30;99.90;;;;;;5087187;28;20044;-59
2023/04/10 09:25:35;;;;;;;0.77;0.60;;;11.30;99.90;;;;;;5087724;28;20048;-60
2023/04/10 09:28:03;;;;;;;0.73;0.50;;;11.30;99.90;;;;;;5085892;28;20063;-60
2023/04/10 09:30:40;;;;;;;1.40;0.60;;;11.40;99.90;;;;;;5087159;28;20093;-60
2023/04/10 09:33:29;;;;;;;1.77;0.65;;;11.40;99.90;;;;;;5085847;28;20076;-60
2023/04/10 09:35:56;;;;;;;0.82;0.40;;;11.50;99.90;;;;;;5083130;28;20090;-60
2023/04/10 09:38:24;;;;;;;1.00;0.63;;;11.50;99.90;;;;;;5084859;28;20071;-61
2023/04/10 09:40:51;;;;;;;1.50;0.47;;;11.50;99.90;;;;;;5085878;28;20059;-59
2023/04/10 09:43:22;;;;;;;2.25;0.38;;;11.50;99.90;;;;;;5085898;28;20044;-59
2023/04/10 09:45:53;;;;;;;2.38;0.52;;;11.50;99.90;;;;;;5083280;28;20101;-61
2023/04/10 09:48:20;;;;;;;1.48;0.50;;;11.60;99.90;;;;;;5086936;28;20094;-58
2023/04/10 09:50:47;;;;;;;0.93;0.50;;;11.60;99.90;;;;;;5086730;28;20090;-57
2023/04/10 09:53:15;;;;;;;2.38;0.82;;;11.60;99.90;;;;;;5085300;28;20075;-58
2023/04/10 09:55:42;;;;;;;0.60;0.30;;;11.50;99.90;;;;;;5086168;28;20139;-59
2023/04/10 09:58:09;;;;;;;0.75;0.40;;;11.50;99.90;;;;;;5084328;28;20057;-59
2023/04/10 10:00:41;;;;;;;0.50;0.30;;;11.50;99.90;;;;;;5085734;28;20131;-59
2023/04/10 10:03:15;;;;;;;2.05;0.40;;;11.50;99.90;;;;;;5086070;28;20044;-59
2023/04/10 10:05:44;;;;;;;4.18;0.50;;;11.50;99.90;;;;;;5084204;28;20075;-59
2023/04/10 10:08:12;;;;;;;2.85;0.73;;;11.40;99.90;;;;;;5086281;28;20071;-59
2023/04/10 10:10:44;;;;;;;0.77;0.40;;;11.50;99.90;;;;;;5067539;28;20439;-60
2023/04/10 10:13:16;;;;;;;0.50;0.47;;;11.50;99.90;;;;;;5066383;28;20129;-58
2023/04/10 10:16:14;;;;;;;0.68;0.47;;;11.50;99.90;;;;;;5082578;28;20138;-58
2023/04/10 10:19:05;;;;;;;2.35;0.57;;;11.50;99.90;;;;;;5086124;28;20052;-61
2023/04/10 10:21:33;;;;;;;0.90;0.30;;;11.60;99.90;;;;;;5083465;28;20040;-59
2023/04/10 10:24:00;;;;;;;0.45;0.30;;;11.50;99.90;;;;;;5084186;28;20633;-59
2023/04/10 10:26:28;;;;;;;0.57;0.38;;;11.50;99.90;;;;;;5084233;28;20043;-61
2023/04/10 10:28:55;;;;;;;1.60;0.47;;;11.60;99.90;;;;;;5084777;28;20067;-58
2023/04/10 10:31:24;;;;;;;0.57;0.38;;;11.60;99.90;;;;;;5084663;28;20052;-60
2023/04/10 10:33:51;;;;;;;1.63;0.50;;;11.60;99.90;;;;;;5085001;28;20051;-60
2023/04/10 10:36:19;;;;;;;0.80;0.40;;;11.60;99.90;;;;;;5083561;28;20048;-60
2023/04/10 10:38:53;;;;;;;8.68;1.25;;;11.70;99.90;;;;;;5079359;28;20695;-60
2023/04/10 10:41:39;;;;;;;8.20;1.40;;;11.70;99.90;;;;;;5083391;28;20400;-59
2023/04/10 10:44:13;;;;;;;2.45;0.80;;;11.70;99.90;;;;;;5081719;28;20556;-60
2023/04/10 10:46:45;;;;;;;1.30;0.75;;;11.80;99.90;;;;;;5083542;28;20109;-60
2023/04/10 10:49:12;;;;;;;0.93;0.80;;;11.80;99.90;;;;;;5083681;28;20060;-60
2023/04/10 10:51:48;;;;;;;1.35;0.73;;;11.80;99.90;;;;;;5084725;28;20044;-60
2023/04/10 10:54:28;;;;;;;2.70;0.80;;;11.80;99.90;;;;;;5081994;28;20044;-61
2023/04/10 10:56:56;;;;;;;5.03;0.95;;;11.90;99.90;;;;;;5085010;28;20376;-60
2023/04/10 10:59:42;;;;;;;1.88;1.00;;;11.80;99.90;;;;;;5084859;28;20057;-60
2023/04/10 11:02:14;;;;;;;2.47;0.95;;;11.90;99.90;;;;;;5082225;28;20130;-59
2023/04/10 11:04:43;;;;;;;3.35;1.20;;;11.90;99.90;;;;;;5084638;28;20043;-60
2023/04/10 11:07:10;;;;;;;6.68;1.52;;;11.90;99.90;;;;;;5083548;28;20406;-60
2023/04/10 11:09:45;;;;;;;4.65;1.23;;;11.90;99.90;;;;;;5083058;28;20081;-60
2023/04/10 11:12:12;;;;;;;7.40;1.08;;;11.90;99.90;;;;;;5083010;28;20082;-59
2023/04/10 11:14:40;;;;;;;6.15;1.60;;;11.90;99.90;;;;;;5084094;28;20121;-60
2023/04/10 11:17:09;;;;;;;8.05;1.63;;;11.80;99.90;;;;;;5064989;28;20044;-60
2023/04/10 11:20:08;;;;;;;15.48;1.80;;;11.90;99.90;;;;;;5084032;28;20046;-60
2023/04/10 11:23:09;;;;;;;10.50;2.05;;;11.90;99.90;;;;;;5039630;28;20047;-59
2023/04/10 11:25:52;;;;;;;4.88;1.58;;;12.00;99.90;;;;;;5084126;28;20051;-61
2023/04/10 11:28:48;;;;;;;5.27;1.40;;;12.00;99.90;;;;;;5084451;28;20052;-61
2023/04/10 11:31:20;;;;;;;8.65;1.98;;;12.20;99.90;;;;;;5065417;28;20547;-59
2023/04/10 11:34:02;;;;;;;5.80;2.13;;;12.30;99.90;;;;;;5082360;28;20054;-58
2023/04/10 11:36:30;;;;;;;5.05;1.55;;;12.50;99.90;;;;;;5079055;28;20047;-59
2023/04/10 11:39:12;;;;;;;7.80;1.60;;;12.60;99.90;;;;;;5083272;28;20094;-59
2023/04/10 11:41:40;;;;;;;4.05;1.25;;;12.60;99.90;;;;;;5083964;28;20047;-60
2023/04/10 11:44:11;;;;;;;8.48;1.85;;;12.70;99.90;;;;;;5080897;28;20066;-59
2023/04/10 11:46:40;;;;;;;12.07;2.20;;;12.70;99.90;;;;;;5082936;28;20051;-60
2023/04/10 11:49:10;;;;;;;9.48;2.00;;;12.80;99.90;;;;;;5081765;28;20208;-62
2023/04/10 11:51:37;;;;;;;16.58;4.25;;;12.80;99.90;;;;;;5079193;28;20044;-60
2023/04/10 11:54:08;;;;;;;8.75;1.77;;;12.80;99.90;;;;;;5079842;28;20054;-59
2023/04/10 11:56:36;;;;;;;11.30;2.33;;;12.80;99.90;;;;;;5079825;28;20048;-59
2023/04/10 11:59:12;;;;;;;7.93;1.80;;;12.80;99.90;;;;;;5079672;28;20490;-59
2023/04/10 12:01:39;;;;;;;12.95;2.47;;;12.90;99.90;;;;;;5082882;28;20487;-59
2023/04/10 12:04:25;;;;;;;11.02;2.58;;;12.80;99.90;;;;;;5079367;28;20548;-59
2023/04/10 12:06:52;;;;;;;12.38;2.20;;;12.90;99.90;;;;;;5082059;28;20078;-60
2023/04/10 12:09:19;;;;;;;12.63;2.60;;;13.00;99.90;;;;;;5084312;28;20040;-60
2023/04/10 12:12:02;;;;;;;12.68;2.05;;;13.10;99.90;;;;;;5084427;28;20047;-60
2023/04/10 12:14:37;;;;;;;8.47;1.90;;;13.10;99.90;;;;;;5080884;28;20486;-60
2023/04/10 12:17:05;;;;;;;15.80;2.55;;;13.20;99.90;;;;;;5081316;28;20048;-60
2023/04/10 12:19:32;;;;;;;12.70;2.13;;;13.20;99.90;;;;;;5084929;28;20490;-58
2023/04/10 12:22:01;;;;;;;15.80;2.15;;;13.30;99.90;;;;;;5069161;28;20291;-60
2023/04/10 12:24:48;;;;;;;14.45;2.33;;;13.40;99.90;;;;;;5085900;28;20503;-59
2023/04/10 12:27:28;;;;;;;14.60;3.08;;;13.50;99.90;;;;;;5085634;28;20197;-59
2023/04/10 12:29:55;;;;;;;15.85;2.55;;;13.50;99.90;;;;;;5086291;28;20048;-60
2023/04/10 12:32:23;;;;;;;8.93;2.35;;;13.70;99.90;;;;;;5084962;28;20121;-59
2023/04/10 12:34:56;;;;;;;22.60;4.47;;;13.70;99.90;;;;;;5086683;28;20987;-58
2023/04/10 12:37:24;;;;;;;13.02;2.67;;;13.70;99.90;;;;;;5084735;28;20086;-59
2023/04/10 12:39:51;;;;;;;14.35;2.53;;;13.70;99.90;;;;;;5086581;28;20056;-61
2023/04/10 12:42:21;;;;;;;20.15;3.25;;;13.80;99.90;;;;;;5084813;28;20109;-60
2023/04/10 12:45:00;;;;;;;14.75;3.60;;;13.90;99.90;;;;;;5087297;28;20052;-60
2023/04/10 12:47:27;;;;;;;8.73;2.60;;;13.90;99.90;;;;;;5087844;28;20036;-60
2023/04/10 12:50:11;;;;;;;22.27;3.15;;;14.00;99.90;;;;;;5087629;28;20052;-62
2023/04/10 12:52:40;;;;;;;12.70;2.70;;;14.20;99.90;;;;;;5083761;28;20087;-59